Time;durP1;ratioP1;P1;durP2;ratioP2;P2;SDS_P1;SDS_P2;PMS_P1;PMS_P2;Temp;Humidity;BMP_temperature;BMP_pressure;BME280_temperature;BME280_humidity;BME280_pressure;Samples;Min_cycle;Max_cycle;Signal;HPM_P1;HPM_P2
2024/01/23 00:00:55;;;;;;;;;;;;;;;4.14;88.35;100465.01;104482;1297;61208;-57
2024/01/23 00:03:41;;;;;;;;;;;;;;;4.14;88.10;100466.89;104445;1293;62909;-57
2024/01/23 00:06:27;;;;;;;;;;;;;;;4.09;88.05;100464.12;104521;1297;73467;-56
2024/01/23 00:09:13;;;;;;;;;;;;;;;4.04;88.09;100467.15;104472;1294;67864;-55
2024/01/23 00:12:01;;;;;;;;;;;;;;;4.02;88.09;100471.40;104485;1297;72172;-56
2024/01/23 00:14:47;;;;;;;;;;;;;;;4.00;89.12;100473.43;104493;1293;63470;-57
2024/01/23 00:17:33;;;;;;;;;;;;;;;4.01;88.10;100473.59;104464;1293;61448;-56
2024/01/23 00:20:19;;;;;;;;;;;;;;;4.04;89.04;100474.14;104504;1293;74554;-57
2024/01/23 00:23:05;;;;;;;;;;;;;;;4.06;88.50;100482.52;104480;1293;67459;-56
2024/01/23 00:25:53;;;;;;;;;;;;;;;4.10;89.27;100488.52;104474;1296;72013;-57
2024/01/23 00:28:39;;;;;;;;;;;;;;;4.15;88.96;100487.88;104431;1293;61199;-57
2024/01/23 00:31:26;;;;;;;;;;;;;;;4.20;89.12;100494.38;104427;1293;62839;-56
2024/01/23 00:34:12;;;;;;;;;;;;;;;4.28;89.08;100491.03;104468;1293;73187;-55
2024/01/23 00:36:59;;;;;;;;;;;;;;;4.33;89.08;100496.52;104481;1293;67295;-56
2024/01/23 00:39:46;;;;;;;;;;;;;;;4.38;89.21;100499.63;104507;1296;72118;-57
2024/01/23 00:42:32;;;;;;;;;;;;;;;4.35;89.48;100505.75;104441;1293;61234;-55
2024/01/23 00:45:18;;;;;;;;;;;;;;;4.30;89.25;100506.05;104446;1293;61135;-55
2024/01/23 00:48:04;;;;;;;;;;;;;;;4.31;89.31;100509.14;104449;1293;75711;-57
2024/01/23 00:50:50;;;;;;;;;;;;;;;4.36;89.37;100506.78;104485;1293;67316;-56
2024/01/23 00:53:37;;;;;;;;;;;;;;;4.34;89.33;100504.73;104426;1293;70284;-56
2024/01/23 00:56:23;;;;;;;;;;;;;;;4.30;89.12;100501.27;104496;1293;61269;-56
2024/01/23 00:59:12;;;;;;;;;;;;;;;4.26;88.88;100508.23;104446;1293;59300;-55
2024/01/23 01:01:59;;;;;;;;;;;;;;;4.18;88.99;100509.20;104470;1293;74369;-57
2024/01/23 01:04:46;;;;;;;;;;;;;;;4.12;88.66;100513.11;104441;1297;68029;-57
2024/01/23 01:07:32;;;;;;;;;;;;;;;4.05;88.90;100511.00;104429;1298;71355;-53
2024/01/23 01:10:19;;;;;;;;;;;;;;;3.98;88.96;100511.95;104385;1293;61416;-56
2024/01/23 01:13:05;;;;;;;;;;;;;;;3.93;89.02;100513.61;104462;1295;61151;-55
2024/01/23 01:15:51;;;;;;;;;;;;;;;3.90;89.03;100521.77;104412;1293;73165;-56
2024/01/23 01:18:39;;;;;;;;;;;;;;;3.93;88.92;100521.46;104461;1293;67433;-56
2024/01/23 01:21:26;;;;;;;;;;;;;;;3.92;88.95;100510.70;104392;1293;72303;-56
2024/01/23 01:24:12;;;;;;;;;;;;;;;3.91;89.17;100512.06;104461;1293;61176;-56
2024/01/23 01:26:58;;;;;;;;;;;;;;;3.90;89.58;100513.58;104431;1293;61192;-56
2024/01/23 01:29:44;;;;;;;;;;;;;;;3.87;89.09;100522.77;104466;1293;76070;-56
2024/01/23 01:32:30;;;;;;;;;;;;;;;3.84;89.00;100527.52;104483;1293;68766;-56
2024/01/23 01:35:16;;;;;;;;;;;;;;;3.90;89.47;100521.95;104437;1295;72253;-56
2024/01/23 01:38:03;;;;;;;;;;;;;;;3.90;89.09;100517.67;104434;1293;61303;-56
2024/01/23 01:40:49;;;;;;;;;;;;;;;3.91;89.38;100518.20;104419;1293;61589;-56
2024/01/23 01:43:35;;;;;;;;;;;;;;;3.91;89.22;100509.67;104507;1294;75997;-56
2024/01/23 01:46:28;;;;;;;;;;;;;;;3.94;89.42;100509.19;104416;1293;68016;-57
2024/01/23 01:49:16;;;;;;;;;;;;;;;3.95;89.25;100512.09;104440;1293;70501;-56
2024/01/23 01:52:03;;;;;;;;;;;;;;;3.96;89.54;100514.49;104412;1294;61170;-56
2024/01/23 01:54:49;;;;;;;;;;;;;;;4.00;89.09;100513.16;104238;1293;355573;-56
2024/01/23 01:57:36;;;;;;;;;;;;;;;4.03;89.23;100514.56;104455;1293;73206;-57
2024/01/23 02:00:23;;;;;;;;;;;;;;;4.04;89.07;100517.30;104402;1297;67319;-56
2024/01/23 02:03:10;;;;;;;;;;;;;;;4.00;88.90;100516.23;104437;1293;73445;-57
2024/01/23 02:06:01;;;;;;;;;;;;;;;3.95;89.03;100515.34;104387;1293;61301;-55
2024/01/23 02:08:48;;;;;;;;;;;;;;;4.00;89.16;100517.77;104433;1295;59197;-56
2024/01/23 02:11:34;;;;;;;;;;;;;;;4.06;89.37;100519.02;104413;1296;76046;-57
2024/01/23 02:14:20;;;;;;;;;;;;;;;4.14;89.19;100524.89;104488;1298;68262;-57
2024/01/23 02:17:06;;;;;;;;;;;;;;;4.19;89.25;100523.88;104450;1293;73204;-57
2024/01/23 02:19:53;;;;;;;;;;;;;;;4.23;89.03;100519.31;104429;1293;61287;-57
2024/01/23 02:22:39;;;;;;;;;;;;;;;4.23;88.97;100521.70;104454;1293;61202;-55
2024/01/23 02:25:25;;;;;;;;;;;;;;;4.22;88.82;100528.34;104436;1294;74990;-57
2024/01/23 02:28:12;;;;;;;;;;;;;;;4.20;88.88;100524.05;104507;1297;69154;-56
2024/01/23 02:30:58;;;;;;;;;;;;;;;4.15;88.72;100514.82;104476;1296;73019;-54
2024/01/23 02:33:44;;;;;;;;;;;;;;;4.12;88.87;100514.46;104429;1293;61070;-56
2024/01/23 02:36:34;;;;;;;;;;;;;;;4.06;89.00;100518.34;104452;1293;59285;-56
2024/01/23 02:39:22;;;;;;;;;;;;;;;3.97;88.95;100519.62;104441;1298;74221;-56
2024/01/23 02:42:10;;;;;;;;;;;;;;;3.93;89.00;100527.77;104490;1294;72980;-57
2024/01/23 02:44:56;;;;;;;;;;;;;;;3.89;89.08;100533.02;104434;1293;71182;-56
2024/01/23 02:47:42;;;;;;;;;;;;;;;3.91;89.29;100536.61;104431;1293;61138;-56
2024/01/23 02:50:29;;;;;;;;;;;;;;;3.91;89.50;100539.02;104412;1294;61481;-54
2024/01/23 02:53:15;;;;;;;;;;;;;;;3.90;89.42;100535.08;104507;1293;73583;-54
2024/01/23 02:56:02;;;;;;;;;;;;;;;3.86;89.21;100537.42;104422;1293;67701;-56
2024/01/23 02:58:48;;;;;;;;;;;;;;;3.82;89.18;100539.25;104404;1299;71706;-55
2024/01/23 03:01:34;;;;;;;;;;;;;;;3.85;89.61;100543.04;104430;1294;61266;-57
2024/01/23 03:04:21;;;;;;;;;;;;;;;3.87;89.60;100550.21;104474;1294;62962;-55
2024/01/23 03:07:07;;;;;;;;;;;;;;;3.85;89.43;100551.22;104431;1298;73388;-56
2024/01/23 03:09:53;;;;;;;;;;;;;;;3.81;89.39;100549.64;104480;1293;67356;-57
2024/01/23 03:12:39;;;;;;;;;;;;;;;3.78;89.63;100549.95;104477;1294;71192;-56
2024/01/23 03:15:26;;;;;;;;;;;;;;;3.79;89.90;100549.45;104406;1293;61283;-56
2024/01/23 03:18:12;;;;;;;;;;;;;;;3.80;89.70;100545.03;104464;1293;61271;-55
2024/01/23 03:20:58;;;;;;;;;;;;;;;3.81;89.52;100550.33;104459;1293;73493;-55
2024/01/23 03:23:45;;;;;;;;;;;;;;;3.82;89.52;100544.72;104492;1294;67256;-56
2024/01/23 03:26:31;;;;;;;;;;;;;;;3.79;89.41;100550.30;104442;1293;73984;-55
2024/01/23 03:29:17;;;;;;;;;;;;;;;3.79;89.98;100552.01;104439;1293;61129;-56
2024/01/23 03:32:04;;;;;;;;;;;;;;;3.83;90.33;100545.56;104413;1295;61215;-56
2024/01/23 03:34:49;;;;;;;;;;;;;;;3.84;89.92;100542.85;105744;1293;74934;-57
2024/01/23 03:37:35;;;;;;;;;;;;;;;3.86;89.81;100545.44;105753;1293;67420;-57
2024/01/23 03:40:21;;;;;;;;;;;;;;;3.90;89.98;100552.30;105737;1293;73114;-57
2024/01/23 03:43:07;;;;;;;;;;;;;;;3.95;89.91;100554.23;102055;1293;5002856;-56
2024/01/23 03:45:53;;;;;;;;;;;;;;;4.02;89.89;100550.36;105754;1293;59349;-57
2024/01/23 03:48:39;;;;;;;;;;;;;;;4.06;89.98;100548.19;105749;1293;74376;-57
2024/01/23 03:51:26;;;;;;;;;;;;;;;4.10;89.86;100541.40;105753;1293;67950;-57
2024/01/23 03:54:11;;;;;;;;;;;;;;;4.09;89.75;100549.06;105687;1293;73444;-56
2024/01/23 03:56:57;;;;;;;;;;;;;;;4.07;89.74;100548.53;105749;1293;59051;-57
2024/01/23 03:59:44;;;;;;;;;;;;;;;4.03;89.56;100548.49;105738;1292;59471;-56
2024/01/23 04:02:31;;;;;;;;;;;;;;;4.02;89.59;100543.02;105839;1293;74548;-57
2024/01/23 04:05:17;;;;;;;;;;;;;;;4.01;89.66;100544.56;105752;1293;67222;-57
2024/01/23 04:08:03;;;;;;;;;;;;;;;3.99;89.68;100546.25;105724;1294;71255;-57
2024/01/23 04:10:49;;;;;;;;;;;;;;;4.01;89.72;100548.98;105759;1293;59253;-56
2024/01/23 04:13:45;;;;;;;;;;;;;;;4.01;89.73;100549.67;105834;1294;59317;-57
2024/01/23 04:16:31;;;;;;;;;;;;;;;3.96;89.47;100553.55;105701;1293;74432;-56
2024/01/23 04:19:16;;;;;;;;;;;;;;;3.94;89.77;100559.50;105797;1293;67632;-57
2024/01/23 04:22:03;;;;;;;;;;;;;;;3.92;89.63;100558.28;105718;1293;72336;-57
2024/01/23 04:24:48;;;;;;;;;;;;;;;3.93;89.72;100559.98;105755;1293;59006;-57
2024/01/23 04:27:34;;;;;;;;;;;;;;;3.87;89.79;100565.56;105777;1293;59220;-57
2024/01/23 04:30:20;;;;;;;;;;;;;;;3.86;89.76;100571.19;105703;1296;73809;-58
2024/01/23 04:33:07;;;;;;;;;;;;;;;3.82;89.65;100575.56;105761;1293;67379;-58
2024/01/23 04:35:53;;;;;;;;;;;;;;;3.83;89.76;100582.73;105750;1293;71134;-57
2024/01/23 04:38:40;;;;;;;;;;;;;;;3.79;89.84;100590.20;105713;1293;59153;-57
2024/01/23 04:41:27;;;;;;;;;;;;;;;3.77;89.72;100591.71;105733;1294;59102;-56
2024/01/23 04:44:13;;;;;;;;;;;;;;;3.71;89.80;100601.02;105770;1293;73290;-57
2024/01/23 04:46:59;;;;;;;;;;;;;;;3.70;89.78;100607.14;105686;1296;67195;-57
2024/01/23 04:49:45;;;;;;;;;;;;;;;3.69;89.85;100612.75;105748;1293;72017;-57
2024/01/23 04:52:31;;;;;;;;;;;;;;;3.67;90.20;100614.44;105743;1293;58854;-57
2024/01/23 04:55:16;;;;;;;;;;;;;;;3.68;89.79;100623.30;105741;1293;59258;-57
2024/01/23 04:58:02;;;;;;;;;;;;;;;3.61;89.89;100622.40;105782;1293;73558;-57
2024/01/23 05:00:48;;;;;;;;;;;;;;;3.62;89.92;100623.44;105785;1293;67455;-58
2024/01/23 05:03:34;;;;;;;;;;;;;;;3.63;89.92;100628.05;105711;1296;71409;-57
2024/01/23 05:06:20;;;;;;;;;;;;;;;3.61;89.78;100639.27;105789;1293;59330;-57
2024/01/23 05:09:07;;;;;;;;;;;;;;;3.58;89.82;100643.34;105729;1293;58944;-57
2024/01/23 05:11:53;;;;;;;;;;;;;;;3.57;89.63;100641.61;105781;1293;75013;-57
2024/01/23 05:14:39;;;;;;;;;;;;;;;3.57;89.97;100648.25;105757;1293;67340;-58
2024/01/23 05:17:24;;;;;;;;;;;;;;;3.55;89.76;100655.22;105725;1293;71730;-57
2024/01/23 05:20:10;;;;;;;;;;;;;;;3.49;89.79;100655.48;105674;1293;59158;-58
2024/01/23 05:22:56;;;;;;;;;;;;;;;3.47;89.68;100653.07;105696;1295;59300;-58
2024/01/23 05:25:43;;;;;;;;;;;;;;;3.49;89.84;100660.41;32596;1293;20063192;-57
2024/01/23 05:28:29;;;;;;;;;;;;;;;3.52;89.90;100661.99;105729;1293;64013;-57
2024/01/23 05:31:14;;;;;;;;;;;;;;;3.48;90.16;100665.19;105760;1293;58965;-58
2024/01/23 05:34:00;;;;;;;;;;;;;;;3.46;89.75;100671.13;105755;1293;59446;-57
2024/01/23 05:36:46;;;;;;;;;;;;;;;3.40;89.75;100677.33;105621;1295;74111;-57
2024/01/23 05:39:36;;;;;;;;;;;;;;;3.34;89.67;100685.27;105725;1296;67468;-57
2024/01/23 05:42:23;;;;;;;;;;;;;;;3.23;89.87;100688.48;77317;1296;10002181;-58
2024/01/23 05:45:29;;;;;;;;;;;;;;;3.19;90.22;100688.63;76295;1293;20059254;-57
2024/01/23 05:48:15;;;;;;;;;;;;;;;3.17;90.34;100686.72;105754;1293;73018;-58
2024/01/23 05:51:01;;;;;;;;;;;;;;;3.20;90.40;100690.33;105748;1294;60132;-58
2024/01/23 05:53:47;;;;;;;;;;;;;;;3.20;90.46;100696.12;105747;1295;60001;-58
2024/01/23 05:56:33;;;;;;;;;;;;;;;3.20;90.52;100695.95;105735;1293;73362;-56
2024/01/23 05:59:19;;;;;;;;;;;;;;;3.19;90.47;100693.21;105706;1293;67517;-58
2024/01/23 06:02:05;;;;;;;;;;;;;;;3.19;90.27;100689.63;105678;1293;72623;-58
2024/01/23 06:04:51;;;;;;;;;;;;;;;3.18;90.42;100692.69;105699;1294;59043;-58
2024/01/23 06:07:40;;;;;;;;;;;;;;;3.15;90.78;100694.34;105743;1296;60001;-58
2024/01/23 06:10:26;;;;;;;;;;;;;;;3.16;90.59;100694.35;105765;1293;73424;-58
2024/01/23 06:13:12;;;;;;;;;;;;;;;3.15;90.85;100704.21;105678;1293;66204;-58
2024/01/23 06:15:58;;;;;;;;;;;;;;;3.14;91.00;100705.22;105759;1293;73066;-58
2024/01/23 06:18:44;;;;;;;;;;;;;;;3.15;91.19;100699.46;105732;1293;58706;-58
2024/01/23 06:21:30;;;;;;;;;;;;;;;3.11;91.22;100702.99;105639;1293;58758;-58
2024/01/23 06:24:17;;;;;;;;;;;;;;;3.12;91.32;100706.06;105742;1297;73292;-58
2024/01/23 06:27:03;;;;;;;;;;;;;;;3.12;91.36;100707.25;105718;1298;67337;-59
2024/01/23 06:29:49;;;;;;;;;;;;;;;3.09;91.30;100711.14;105730;1293;72532;-58
2024/01/23 06:32:36;;;;;;;;;;;;;;;3.06;91.77;100717.39;105763;1293;59075;-58
2024/01/23 06:35:22;;;;;;;;;;;;;;;3.03;91.48;100726.71;32450;1293;20001640;-58
2024/01/23 06:38:08;;;;;;;;;;;;;;;3.08;91.62;100734.96;105732;1293;72633;-57
2024/01/23 06:40:54;;;;;;;;;;;;;;;3.08;92.25;100745.36;105680;1293;71137;-58
2024/01/23 06:43:40;;;;;;;;;;;;;;;3.12;91.71;100751.88;105719;1293;58963;-57
2024/01/23 06:46:26;;;;;;;;;;;;;;;3.13;91.63;100754.44;105677;1295;73696;-59
2024/01/23 06:49:12;;;;;;;;;;;;;;;3.14;91.76;100760.23;105808;1293;69867;-58
2024/01/23 06:51:58;;;;;;;;;;;;;;;3.14;91.93;100766.88;105702;1293;171836;-58
2024/01/23 06:54:44;;;;;;;;;;;;;;;3.18;91.83;100781.60;105746;1296;59218;-58
2024/01/23 06:57:30;;;;;;;;;;;;;;;3.24;91.95;100785.28;105807;1294;59353;-58
2024/01/23 07:00:16;;;;;;;;;;;;;;;3.28;91.71;100798.11;104741;1293;74563;-57
2024/01/23 07:03:02;;;;;;;;;;;;;;;3.35;91.73;100794.31;105710;1293;68592;-58
2024/01/23 07:05:48;;;;;;;;;;;;;;;3.42;91.74;100794.77;105698;1292;72088;-58
2024/01/23 07:08:34;;;;;;;;;;;;;;;3.47;91.53;100793.16;105676;1295;59110;-58
2024/01/23 07:11:20;;;;;;;;;;;;;;;3.56;91.72;100797.55;105865;1293;60681;-58
2024/01/23 07:14:06;;;;;;;;;;;;;;;3.63;91.70;100801.40;105828;1293;73274;-57
2024/01/23 07:16:52;;;;;;;;;;;;;;;3.70;91.43;100799.43;105729;1293;66904;-58
2024/01/23 07:19:38;;;;;;;;;;;;;;;3.75;91.47;100805.14;105688;1294;72755;-57
2024/01/23 07:22:24;;;;;;;;;;;;;;;3.80;91.29;100811.52;105721;1293;58999;-57
2024/01/23 07:25:10;;;;;;;;;;;;;;;3.87;91.27;100821.34;105653;1293;59999;-56
2024/01/23 07:27:56;;;;;;;;;;;;;;;3.93;91.15;100833.55;105770;1293;73587;-58
2024/01/23 07:30:42;;;;;;;;;;;;;;;3.99;91.06;100842.33;105655;1293;68701;-58
2024/01/23 07:33:28;;;;;;;;;;;;;;;4.05;91.00;100844.80;105694;1292;72561;-58
2024/01/23 07:36:14;;;;;;;;;;;;;;;4.10;90.78;100851.53;105695;1293;58886;-58
2024/01/23 07:39:00;;;;;;;;;;;;;;;4.14;90.69;100853.11;105693;1293;59240;-58
2024/01/23 07:41:45;;;;;;;;;;;;;;;4.16;90.68;100854.84;105652;1293;74211;-58
2024/01/23 07:44:39;;;;;;;;;;;;;;;4.21;90.54;100863.59;105741;1293;67648;-58
2024/01/23 07:47:24;;;;;;;;;;;;;;;4.23;90.62;100859.36;105735;1294;70603;-58
2024/01/23 07:50:12;;;;;;;;;;;;;;;4.27;91.25;100866.41;105718;1293;59018;-58
2024/01/23 07:52:58;;;;;;;;;;;;;;;4.31;90.84;100864.76;105727;1296;59099;-58
2024/01/23 07:55:44;;;;;;;;;;;;;;;4.38;90.83;100871.34;105697;1293;73735;-58
2024/01/23 07:58:29;;;;;;;;;;;;;;;4.44;90.83;100878.58;105676;1296;67121;-58
2024/01/23 08:01:15;;;;;;;;;;;;;;;4.50;90.84;100883.45;105756;1293;72562;-57
2024/01/23 08:04:02;;;;;;;;;;;;;;;4.60;90.70;100889.73;105745;1293;59139;-58
2024/01/23 08:06:48;;;;;;;;;;;;;;;4.66;90.56;100886.55;105723;1294;67606;-58
2024/01/23 08:09:34;;;;;;;;;;;;;;;4.69;90.39;100885.53;105713;1293;73409;-58
2024/01/23 08:12:20;;;;;;;;;;;;;;;4.74;90.31;100886.95;105772;1293;67845;-58
2024/01/23 08:15:06;;;;;;;;;;;;;;;4.81;90.21;100888.41;105768;1293;72110;-58
2024/01/23 08:17:53;;;;;;;;;;;;;;;4.88;89.82;100898.40;105731;1293;59452;-58
2024/01/23 08:20:39;;;;;;;;;;;;;;;4.91;89.77;100896.73;105751;1293;60056;-58
2024/01/23 08:23:25;;;;;;;;;;;;;;;4.94;89.79;100892.66;105754;1293;73463;-58
2024/01/23 08:26:12;;;;;;;;;;;;;;;4.96;89.56;100888.42;105710;1293;67349;-58
2024/01/23 08:28:59;;;;;;;;;;;;;;;5.09;89.52;100893.35;105757;1293;71310;-58
2024/01/23 08:31:45;;;;;;;;;;;;;;;5.21;89.00;100894.65;105716;1296;59297;-57
2024/01/23 08:34:31;;;;;;;;;;;;;;;5.40;88.85;100896.20;105729;1293;58946;-58
2024/01/23 08:37:17;;;;;;;;;;;;;;;5.59;87.75;100897.92;105776;1293;73434;-58
2024/01/23 08:40:03;;;;;;;;;;;;;;;5.73;87.89;100901.96;105728;1295;68100;-58
2024/01/23 08:42:49;;;;;;;;;;;;;;;5.82;86.71;100898.59;105744;1293;71464;-58
2024/01/23 08:45:35;;;;;;;;;;;;;;;5.76;86.35;100903.16;105746;1293;59753;-58
2024/01/23 08:48:23;;;;;;;;;;;;;;;5.69;85.86;100908.09;105791;1293;60719;-58
2024/01/23 08:51:10;;;;;;;;;;;;;;;5.78;85.72;100911.05;105740;1293;74549;-58
2024/01/23 08:53:56;;;;;;;;;;;;;;;6.05;85.83;100909.59;105749;1293;68440;-58
2024/01/23 08:56:56;;;;;;;;;;;;;;;;;;;;;
2024/01/23 08:59:45;;;;;;;;;;;;;;;6.83;83.78;100919.91;105741;1294;59329;-58
2024/01/23 09:02:31;;;;;;;;;;;;;;;7.23;83.57;100917.47;105795;1293;59646;-58
2024/01/23 09:05:17;;;;;;;;;;;;;;;7.66;83.10;100920.60;105815;1293;73585;-58
2024/01/23 09:08:09;;;;;;;;;;;;;;;8.02;80.15;100921.79;105776;1297;68889;-58
2024/01/23 09:11:07;;;;;;;;;;;;;;;;;;;;;
2024/01/23 09:13:53;;;;;;;;;;;;;;;8.83;78.02;100926.92;105744;1293;59043;-57
2024/01/23 09:16:42;;;;;;;;;;;;;;;8.98;77.34;100934.27;105701;1293;59153;-57
2024/01/23 09:19:47;;;;;;;;;;;;;;;;;;;;;
2024/01/23 09:22:33;;;;;;;;;;;;;;;9.02;76.05;100937.67;105803;1293;67324;-57
2024/01/23 09:25:22;;;;;;;;;;;;;;;8.89;75.79;100937.04;105737;1294;71434;-57
2024/01/23 09:28:08;;;;;;;;;;;;;;;8.63;73.48;100938.52;105694;1293;59877;-58
2024/01/23 09:30:53;;;;;;;;;;;;;;;8.76;75.42;100934.36;105792;1293;59869;-58
2024/01/23 09:34:00;;;;;;;;;;;;;;;9.07;75.09;100938.52;105770;1293;73480;-59
2024/01/23 09:36:46;;;;;;;;;;;;;;;9.32;74.48;100945.09;105769;1293;68758;-57
2024/01/23 09:39:32;;;;;;;;;;;;;;;9.24;73.30;100946.16;105726;1293;71619;-57
2024/01/23 09:42:21;;;;;;;;;;;;;;;8.87;72.96;100950.29;105748;1293;58896;-57
2024/01/23 09:45:31;;;;;;;;;;;;;;;8.38;74.18;100955.23;47064;1298;20059239;-57
2024/01/23 09:48:26;;;;;;;;;;;;;;;8.13;74.24;100954.91;105655;1294;73735;-56
2024/01/23 09:51:13;;;;;;;;;;;;;;;7.91;73.96;100965.55;105751;1298;67221;-56
2024/01/23 09:53:59;;;;;;;;;;;;;;;7.66;74.75;100969.17;105757;1293;70359;-57
2024/01/23 09:56:45;;;;;;;;;;;;;;;7.35;74.35;100969.61;105699;1293;59270;-57
2024/01/23 09:59:31;;;;;;;;;;;;;;;7.05;74.75;100966.11;105767;1293;60660;-57
2024/01/23 10:02:17;;;;;;;;;;;;;;;6.86;74.90;100966.52;105749;1296;74697;-57
2024/01/23 10:05:06;;;;;;;;;;;;;;;6.88;75.48;100977.67;105742;1298;67543;-56
2024/01/23 10:07:54;;;;;;;;;;;;;;;6.81;75.04;100993.58;105736;1294;72279;-56
2024/01/23 10:10:39;;;;;;;;;;;;;;;6.73;75.69;100994.08;105766;1299;58953;-57
2024/01/23 10:13:26;;;;;;;;;;;;;;;6.76;75.55;100992.52;105739;1293;58853;-57
2024/01/23 10:16:16;;;;;;;;;;;;;;;6.70;75.41;100993.71;105726;1296;73377;-56
2024/01/23 10:19:02;;;;;;;;;;;;;;;6.57;75.46;100998.94;105763;1293;68293;-56
2024/01/23 10:21:48;;;;;;;;;;;;;;;6.52;75.58;101000.11;105741;1298;71327;-57
2024/01/23 10:24:34;;;;;;;;;;;;;;;6.47;75.86;101001.79;105670;1293;59014;-57
2024/01/23 10:27:20;;;;;;;;;;;;;;;6.47;75.87;101003.67;105774;1296;59032;-57
2024/01/23 10:30:06;;;;;;;;;;;;;;;6.42;75.83;101003.98;105667;1293;96132;-57
2024/01/23 10:32:53;;;;;;;;;;;;;;;6.35;75.81;101001.02;32384;1293;10002425;-57
2024/01/23 10:35:40;;;;;;;;;;;;;;;6.28;75.82;101006.78;105751;1293;59225;-57
2024/01/23 10:38:26;;;;;;;;;;;;;;;6.27;76.13;100999.58;105741;1295;75507;-57
2024/01/23 10:41:14;;;;;;;;;;;;;;;6.34;75.97;100995.88;105726;1294;67408;-56
2024/01/23 10:44:02;;;;;;;;;;;;;;;6.36;76.06;101001.02;105732;1294;71409;-57
2024/01/23 10:46:55;;;;;;;;;;;;;;;6.29;75.81;101001.82;105755;1293;59032;-57
2024/01/23 10:49:42;;;;;;;;;;;;;;;6.21;75.95;100996.83;105723;1292;59370;-55
2024/01/23 10:52:31;;;;;;;;;;;;;;;6.16;75.76;100992.52;105649;1294;77483;-57
2024/01/23 10:55:18;;;;;;;;;;;;;;;6.18;75.56;100994.58;105751;1293;68060;-56
2024/01/23 10:58:10;;;;;;;;;;;;;;;6.19;75.64;100993.39;105710;1298;71976;-56
2024/01/23 11:00:56;;;;;;;;;;;;;;;6.24;75.76;100992.04;105712;1296;58922;-56
2024/01/23 11:03:42;;;;;;;;;;;;;;;6.29;75.44;100983.86;105738;1293;59890;-57
2024/01/23 11:06:34;;;;;;;;;;;;;;;6.34;75.47;100984.05;105763;1293;74022;-57
2024/01/23 11:09:22;;;;;;;;;;;;;;;6.34;75.57;100984.23;105793;1293;68390;-57
2024/01/23 11:12:43;;;;;;;;;;;;;;;6.36;75.71;100988.52;104887;1298;71664;-56
2024/01/23 11:15:30;;;;;;;;;;;;;;;6.43;75.48;100984.29;104021;1301;61329;-56
2024/01/23 11:18:22;;;;;;;;;;;;;;;6.42;75.30;100981.38;104506;1297;61598;-56
2024/01/23 11:21:09;;;;;;;;;;;;;;;6.37;75.63;100981.68;104514;1296;76696;-54
2024/01/23 11:24:02;;;;;;;;;;;;;;;6.31;75.91;100985.06;104468;1294;68158;-55
2024/01/23 11:26:54;;;;;;;;;;;;;;;6.18;76.24;100980.19;104472;1294;71342;-54
2024/01/23 11:29:40;;;;;;;;;;;;;;;6.08;76.79;100977.89;104437;1298;61934;-56
2024/01/23 11:32:28;;;;;;;;;;;;;;;6.13;77.23;100984.95;104408;1296;61418;-56
2024/01/23 11:35:14;;;;;;;;;;;;;;;6.32;77.08;100992.60;105778;1293;73466;-56
2024/01/23 11:38:02;;;;;;;;;;;;;;;6.32;76.97;100999.80;105768;1293;68815;-57
2024/01/23 11:40:54;;;;;;;;;;;;;;;6.26;76.84;101002.83;105715;1296;72850;-57
2024/01/23 11:43:40;;;;;;;;;;;;;;;6.20;77.03;101000.59;105806;1293;59008;-57
2024/01/23 11:46:26;;;;;;;;;;;;;;;6.13;77.47;101009.26;105807;1296;58962;-56
2024/01/23 11:49:12;;;;;;;;;;;;;;;6.15;77.61;101010.98;105700;1294;73711;-56
2024/01/23 11:52:00;;;;;;;;;;;;;;;6.16;77.78;101016.80;105747;1295;68503;-57
2024/01/23 11:54:46;;;;;;;;;;;;;;;6.13;78.00;101016.09;105776;1293;72063;-56
2024/01/23 11:57:34;;;;;;;;;;;;;;;6.03;78.46;101013.61;105650;1293;58430;-57
2024/01/23 12:00:21;;;;;;;;;;;;;;;5.87;78.88;101011.23;105681;1298;59452;-56
2024/01/23 12:03:20;;;;;;;;;;;;;;;5.80;79.14;101013.36;105636;1294;73375;-58
2024/01/23 12:06:06;;;;;;;;;;;;;;;5.65;80.22;101012.39;105668;1299;66351;-58
2024/01/23 12:08:52;;;;;;;;;;;;;;;5.56;80.54;101014.52;105638;1293;72226;-58
2024/01/23 12:11:38;;;;;;;;;;;;;;;5.46;80.78;101017.98;105692;1297;59256;-56
2024/01/23 12:14:24;;;;;;;;;;;;;;;5.39;81.37;101017.21;105689;1293;59096;-57
2024/01/23 12:17:10;;;;;;;;;;;;;;;5.32;81.75;101030.31;105571;1299;73399;-57
2024/01/23 12:19:55;;;;;;;;;;;;;;;5.29;83.00;101032.83;105670;1296;67444;-57
2024/01/23 12:22:42;;;;;;;;;;;;;;;5.33;82.78;101031.67;105667;1298;72488;-57
2024/01/23 12:25:28;;;;;;;;;;;;;;;5.30;83.24;101038.66;105685;1292;59314;-56
2024/01/23 12:28:22;;;;;;;;;;;;;;;5.29;83.32;101044.11;105673;1298;59030;-56
2024/01/23 12:31:19;;;;;;;;;;;;;;;5.28;83.31;101035.39;105596;1295;73387;-55
2024/01/23 12:34:08;;;;;;;;;;;;;;;5.27;83.44;101034.17;105673;1298;67421;-57
2024/01/23 12:36:53;;;;;;;;;;;;;;;5.23;83.54;101027.46;105658;1296;72426;-56
2024/01/23 12:39:41;;;;;;;;;;;;;;;5.26;84.07;101034.17;105607;1296;59444;-56
2024/01/23 12:42:27;;;;;;;;;;;;;;;5.51;84.01;101031.55;105646;1296;60762;-57
2024/01/23 12:45:14;;;;;;;;;;;;;;;5.91;83.77;101030.09;105651;1295;72567;-57
2024/01/23 12:48:00;;;;;;;;;;;;;;;6.07;82.83;101040.70;105673;1295;68853;-56
2024/01/23 12:50:47;;;;;;;;;;;;;;;6.04;82.61;101046.31;105680;1296;71361;-56
2024/01/23 12:53:35;;;;;;;;;;;;;;;5.99;82.67;101046.77;105768;1292;58776;-57
2024/01/23 12:56:21;;;;;;;;;;;;;;;5.93;82.53;101050.14;105709;1294;60399;-56
2024/01/23 12:59:07;;;;;;;;;;;;;;;5.90;82.57;101054.04;105758;1296;74596;-56
2024/01/23 13:01:53;;;;;;;;;;;;;;;5.92;82.52;101055.60;105692;1296;67298;-56
2024/01/23 13:04:39;;;;;;;;;;;;;;;5.98;82.29;101049.16;105769;1292;71433;-55
2024/01/23 13:07:25;;;;;;;;;;;;;;;5.97;81.89;101058.05;105776;1293;59006;-55
2024/01/23 13:10:12;;;;;;;;;;;;;;;5.89;81.95;101067.70;105773;1294;59373;-56
2024/01/23 13:12:58;;;;;;;;;;;;;;;5.90;81.99;101064.64;105728;1296;74647;-55
2024/01/23 13:15:44;;;;;;;;;;;;;;;5.95;81.55;101062.66;105755;1293;66226;-57
2024/01/23 13:18:30;;;;;;;;;;;;;;;6.03;81.21;101063.06;105712;1293;72548;-57
2024/01/23 13:21:16;;;;;;;;;;;;;;;6.05;81.10;101063.27;105763;1292;58955;-56
2024/01/23 13:24:02;;;;;;;;;;;;;;;6.08;81.07;101070.48;105721;1296;59025;-56
2024/01/23 13:26:48;;;;;;;;;;;;;;;6.11;81.25;101079.23;105702;1294;73089;-56
2024/01/23 13:29:35;;;;;;;;;;;;;;;6.17;80.81;101064.41;105797;1293;68176;-57
2024/01/23 13:32:22;;;;;;;;;;;;;;;6.31;80.63;101062.11;105699;1293;72367;-56
2024/01/23 13:35:08;;;;;;;;;;;;;;;6.40;80.46;101059.27;105583;1296;59262;-56
2024/01/23 13:37:57;;;;;;;;;;;;;;;6.45;79.72;101070.27;105790;1297;59020;-57
2024/01/23 13:40:43;;;;;;;;;;;;;;;6.50;79.40;101080.94;105740;1298;74490;-57
2024/01/23 13:43:29;;;;;;;;;;;;;;;6.88;79.99;101086.66;105607;1298;67496;-58
2024/01/23 13:46:15;;;;;;;;;;;;;;;7.01;78.90;101080.92;105693;1293;72638;-57
2024/01/23 13:49:01;;;;;;;;;;;;;;;6.95;78.48;101084.48;105644;1296;59072;-57
2024/01/23 13:51:48;;;;;;;;;;;;;;;6.84;78.61;101080.98;105704;1297;59072;-57
2024/01/23 13:54:34;;;;;;;;;;;;;;;6.76;78.54;101076.15;105397;1295;345164;-56
2024/01/23 13:57:20;;;;;;;;;;;;;;;6.74;78.84;101081.98;105662;1294;68015;-56
2024/01/23 14:00:07;;;;;;;;;;;;;;;6.69;78.51;101093.08;105688;1293;71381;-56
2024/01/23 14:02:53;;;;;;;;;;;;;;;6.62;78.63;101097.13;105598;1294;59488;-56
2024/01/23 14:05:39;;;;;;;;;;;;;;;6.74;79.00;101106.46;105722;1296;59479;-57
2024/01/23 14:08:25;;;;;;;;;;;;;;;6.84;78.83;101108.23;105635;1296;74917;-57
2024/01/23 14:11:11;;;;;;;;;;;;;;;6.69;78.37;101117.39;105758;1292;68929;-56
2024/01/23 14:13:57;;;;;;;;;;;;;;;6.51;78.25;101123.07;105451;1296;201886;-57
2024/01/23 14:16:43;;;;;;;;;;;;;;;6.35;78.65;101125.48;105643;1294;59338;-56
2024/01/23 14:19:29;;;;;;;;;;;;;;;6.30;78.69;101128.17;105698;1298;59049;-57
2024/01/23 14:22:16;;;;;;;;;;;;;;;6.19;78.81;101129.47;105590;1293;73254;-56